createdAt,value
2024-03-22T00:01:59.095Z,8.89
2024-03-22T00:06:59.964Z,9.00
2024-03-22T00:12:01.180Z,9.05
2024-03-22T00:17:01.945Z,9.19
2024-03-22T00:22:02.980Z,9.18
2024-03-22T00:27:03.781Z,9.36
2024-03-22T00:32:07.784Z,9.67
2024-03-22T00:37:08.642Z,9.71
2024-03-22T00:42:09.501Z,9.68
2024-03-22T00:47:10.274Z,9.76
2024-03-22T00:52:11.299Z,9.75
2024-03-22T00:57:12.114Z,9.80
2024-03-22T01:02:12.927Z,9.76
2024-03-22T01:07:13.697Z,9.74
2024-03-22T01:12:14.510Z,9.59
2024-03-22T01:17:15.309Z,9.54
2024-03-22T01:22:18.153Z,9.48
2024-03-22T01:27:18.957Z,9.39
2024-03-22T01:32:19.742Z,9.41
2024-03-22T01:37:21.090Z,9.32
2024-03-22T01:42:22.189Z,9.29
2024-03-22T01:47:23.035Z,9.31
2024-03-22T01:52:26.794Z,9.38
2024-03-22T01:57:27.982Z,9.40
2024-03-22T02:02:28.812Z,9.28
2024-03-22T02:07:30.490Z,9.28
2024-03-22T02:12:31.302Z,9.25
2024-03-22T02:17:32.202Z,9.18
2024-03-22T02:22:33.287Z,9.15
2024-03-22T02:27:34.683Z,9.19
2024-03-22T02:32:35.521Z,9.18
2024-03-22T02:37:36.309Z,9.17
2024-03-22T02:42:37.192Z,9.15
2024-03-22T02:47:38.330Z,9.18
2024-03-22T02:52:39.292Z,9.27
2024-03-22T02:57:40.176Z,9.25
2024-03-22T03:02:41.009Z,9.25
2024-03-22T03:07:41.780Z,9.28
2024-03-22T03:12:42.613Z,9.30
2024-03-22T03:17:43.440Z,9.32
2024-03-22T03:22:44.412Z,9.33
2024-03-22T03:27:45.249Z,9.31
2024-03-22T03:32:46.023Z,9.32
2024-03-22T03:37:46.833Z,9.35
2024-03-22T03:42:47.775Z,9.32
2024-03-22T03:47:48.564Z,9.37
2024-03-22T03:52:49.580Z,9.37
2024-03-22T03:57:51.362Z,9.39
2024-03-22T04:02:52.144Z,9.44
2024-03-22T04:07:53.685Z,9.42
2024-03-22T04:12:54.578Z,9.43
2024-03-22T04:17:56.809Z,9.44
2024-03-22T04:22:57.710Z,9.47
2024-03-22T04:27:58.503Z,9.53
2024-03-22T04:32:59.264Z,9.50
2024-03-22T04:38:00.061Z,9.62
2024-03-22T04:43:00.948Z,9.74
2024-03-22T04:48:04.011Z,9.73
2024-03-22T04:53:05.612Z,9.77
2024-03-22T04:58:06.430Z,9.85
2024-03-22T05:03:07.487Z,9.91
2024-03-22T05:08:08.783Z,9.90
2024-03-22T05:13:10.438Z,9.90
2024-03-22T05:18:11.870Z,10.05
2024-03-22T05:23:12.805Z,10.01
2024-03-22T05:28:13.634Z,9.86
2024-03-22T05:33:14.449Z,9.75
2024-03-22T05:38:15.300Z,9.67
2024-03-22T05:43:16.113Z,9.71
2024-03-22T05:48:17.084Z,9.80
2024-03-22T05:53:18.107Z,9.82
2024-03-22T05:58:20.213Z,9.92
2024-03-22T06:03:20.994Z,9.98
2024-03-22T06:08:21.919Z,9.98
2024-03-22T06:13:22.874Z,10.08
2024-03-22T06:18:23.683Z,10.07
2024-03-22T06:23:24.749Z,10.07
2024-03-22T06:28:28.304Z,10.13
2024-03-22T06:33:29.297Z,10.29
2024-03-22T06:38:30.142Z,10.21
2024-03-22T06:43:30.924Z,10.24
2024-03-22T06:48:31.760Z,10.26
2024-03-22T06:53:32.700Z,10.23
2024-03-22T06:58:33.499Z,10.32
2024-03-22T07:03:34.288Z,10.38
2024-03-22T07:08:35.196Z,10.42
2024-03-22T07:13:36.137Z,10.49
2024-03-22T07:18:37.125Z,10.51
2024-03-22T07:23:38.114Z,10.59
2024-03-22T07:28:39.231Z,10.62
2024-03-22T07:33:40.274Z,10.68
2024-03-22T07:38:41.169Z,10.77
2024-03-22T07:43:41.997Z,10.76
2024-03-22T07:48:42.813Z,10.89
2024-03-22T07:53:44.118Z,10.71
2024-03-22T07:58:44.953Z,10.78
2024-03-22T08:03:45.785Z,10.85
2024-03-22T08:08:46.794Z,11.07
2024-03-22T08:13:47.667Z,11.29
2024-03-22T08:18:48.497Z,11.48
2024-03-22T08:23:50.125Z,11.67
2024-03-22T08:28:51.205Z,11.76
2024-03-22T08:33:52.551Z,12.00
2024-03-22T08:38:53.602Z,12.15
2024-03-22T08:43:54.541Z,12.32
2024-03-22T08:48:55.480Z,12.41
2024-03-22T08:53:56.611Z,12.61
2024-03-22T08:58:57.630Z,12.88
2024-03-22T09:03:58.450Z,13.14
2024-03-22T09:08:59.422Z,13.11
2024-03-22T09:14:01.647Z,13.15
2024-03-22T09:19:02.444Z,13.19
2024-03-22T09:24:03.726Z,13.11
2024-03-22T09:29:04.529Z,13.03
2024-03-22T09:34:08.216Z,13.12
2024-03-22T09:39:08.988Z,13.04
2024-03-22T09:44:19.125Z,13.03
2024-03-22T09:49:20.026Z,13.06
2024-03-22T09:54:25.739Z,13.03
2024-03-22T09:59:26.783Z,13.19
2024-03-22T10:04:27.623Z,13.73
2024-03-22T10:09:30.391Z,13.58
2024-03-22T10:14:33.962Z,13.61
2024-03-22T10:19:34.953Z,13.42
2024-03-22T10:24:36.023Z,13.25
2024-03-22T10:29:37.062Z,13.47
2024-03-22T10:34:39.806Z,13.83
2024-03-22T10:39:42.607Z,14.11
2024-03-22T10:44:44.705Z,14.74
2024-03-22T10:49:51.034Z,15.46
2024-03-22T10:54:54.581Z,15.94
2024-03-22T10:59:55.562Z,15.56
2024-03-22T11:04:59.399Z,14.98
2024-03-22T11:10:06.520Z,14.80
2024-03-22T11:15:10.927Z,14.81
2024-03-22T11:20:12.234Z,14.89
2024-03-22T11:25:13.524Z,14.77
2024-03-22T11:30:16.022Z,14.62
2024-03-22T11:35:16.843Z,14.37
2024-03-22T11:40:17.689Z,14.19
2024-03-22T11:45:19.504Z,14.08
2024-03-22T11:50:21.090Z,14.05
2024-03-22T11:55:22.140Z,14.08
2024-03-22T12:00:37.428Z,14.20
2024-03-22T12:05:58.356Z,14.37
2024-03-22T12:10:59.250Z,14.46
2024-03-22T12:16:00.074Z,14.36
2024-03-22T12:21:01.716Z,14.48
2024-03-22T12:31:20.342Z,14.29
2024-03-22T12:36:21.197Z,14.25
2024-03-22T12:41:22.081Z,14.23
2024-03-22T12:46:22.865Z,14.36
2024-03-22T12:51:24.261Z,14.34
2024-03-22T12:56:25.213Z,14.41
2024-03-22T13:01:27.357Z,14.35
2024-03-22T13:06:29.109Z,14.54
2024-03-22T13:11:29.921Z,14.53
2024-03-22T13:16:31.473Z,14.47
2024-03-22T13:21:32.244Z,14.50
2024-03-22T13:26:33.347Z,14.48
2024-03-22T13:31:36.338Z,14.43
2024-03-22T13:36:40.293Z,14.35
2024-03-22T13:41:41.084Z,14.08
2024-03-22T13:46:42.076Z,13.95
2024-03-22T13:51:42.911Z,13.93
2024-03-22T13:56:43.977Z,13.85
2024-03-22T14:01:47.729Z,13.88
2024-03-22T14:06:48.863Z,13.81
2024-03-22T14:11:49.867Z,13.71
2024-03-22T14:16:50.705Z,13.65
2024-03-22T14:21:51.604Z,13.75
2024-03-22T14:26:53.007Z,13.74
2024-03-22T14:31:53.798Z,13.80
2024-03-22T14:36:54.649Z,13.73
2024-03-22T14:41:55.491Z,13.78
2024-03-22T14:46:58.782Z,13.81
2024-03-22T14:52:00.044Z,13.94
2024-03-22T14:57:02.103Z,14.13
2024-03-22T15:02:03.087Z,14.34
2024-03-22T15:07:04.448Z,14.32
2024-03-22T15:12:06.216Z,14.39
2024-03-22T15:17:08.788Z,14.41
2024-03-22T15:22:09.585Z,14.35
2024-03-22T15:27:11.123Z,14.46
2024-03-22T15:32:14.393Z,14.85
2024-03-22T15:37:15.241Z,14.82
2024-03-22T15:42:16.048Z,14.70
2024-03-22T15:47:17.220Z,14.74
2024-03-22T15:52:18.015Z,14.74
2024-03-22T15:57:18.955Z,14.67
2024-03-22T16:02:21.736Z,14.75
2024-03-22T16:07:23.145Z,14.75
2024-03-22T16:12:23.960Z,14.94
2024-03-22T16:17:24.781Z,15.06
2024-03-22T16:22:25.735Z,14.95
2024-03-22T16:27:27.004Z,14.94
2024-03-22T16:32:27.803Z,15.07
2024-03-22T16:37:28.605Z,15.18
2024-03-22T16:42:29.390Z,15.06
2024-03-22T16:47:34.607Z,14.93
2024-03-22T16:52:38.762Z,14.78
2024-03-22T16:57:39.856Z,14.57
2024-03-22T17:02:40.736Z,14.42
2024-03-22T17:07:41.568Z,14.33
2024-03-22T17:12:44.284Z,14.11
2024-03-22T17:17:45.637Z,13.92
2024-03-22T17:22:49.507Z,13.85
2024-03-22T17:27:50.459Z,13.67
2024-03-22T17:32:51.304Z,13.51
2024-03-22T17:37:52.107Z,13.37
2024-03-22T17:42:53.153Z,13.30
2024-03-22T17:47:54.018Z,13.30
2024-03-22T17:52:54.921Z,13.14
2024-03-22T17:57:56.374Z,12.94
2024-03-22T18:02:59.393Z,12.84
2024-03-22T18:08:01.107Z,12.74
2024-03-22T18:13:02.517Z,12.68
2024-03-22T18:18:03.493Z,12.58
2024-03-22T18:23:04.282Z,12.46
2024-03-22T18:28:06.049Z,12.44
2024-03-22T18:33:07.059Z,12.27
2024-03-22T18:38:07.986Z,12.15
2024-03-22T18:43:08.774Z,12.06
2024-03-22T18:48:09.583Z,11.96
2024-03-22T18:53:10.405Z,11.82
2024-03-22T18:58:13.022Z,11.64
2024-03-22T19:03:13.949Z,11.62
2024-03-22T19:08:14.871Z,11.68
2024-03-22T19:13:18.416Z,11.76
2024-03-22T19:18:19.203Z,11.61
2024-03-22T19:23:20.025Z,11.55
2024-03-22T19:28:20.917Z,11.51
2024-03-22T19:33:23.216Z,11.45
2024-03-22T19:38:23.997Z,11.48
2024-03-22T19:43:24.832Z,11.46
2024-03-22T19:48:25.684Z,11.36
2024-03-22T19:53:26.712Z,11.29
2024-03-22T19:58:28.179Z,11.19
2024-03-22T20:03:30.794Z,11.15
2024-03-22T20:08:31.783Z,11.17
2024-03-22T20:13:32.589Z,11.12
2024-03-22T20:18:33.371Z,11.01
2024-03-22T20:23:34.197Z,11.02
2024-03-22T20:28:35.156Z,10.93
2024-03-22T20:33:36.174Z,10.83
2024-03-22T20:38:37.252Z,10.81
2024-03-22T20:43:38.047Z,10.59
2024-03-22T20:48:38.798Z,10.44
2024-03-22T20:53:39.637Z,10.31
2024-03-22T20:58:40.585Z,10.22
2024-03-22T21:03:41.422Z,10.11
2024-03-22T21:08:47.681Z,10.07
2024-03-22T21:13:50.391Z,9.87
2024-03-22T21:18:51.225Z,9.86
2024-03-22T21:23:53.176Z,9.75
2024-03-22T21:28:58.991Z,9.75
2024-03-22T21:34:00.349Z,9.61
2024-03-22T21:39:01.421Z,9.61
2024-03-22T21:44:03.067Z,9.50
2024-03-22T21:49:03.861Z,9.44
2024-03-22T21:54:04.649Z,9.37
2024-03-22T21:59:05.780Z,9.26
2024-03-22T22:04:06.573Z,9.09
2024-03-22T22:09:07.350Z,8.87
2024-03-22T22:14:08.732Z,8.81
2024-03-22T22:19:09.458Z,8.88
2024-03-22T22:24:11.941Z,8.86
2024-03-22T22:29:14.519Z,8.94
2024-03-22T22:34:15.362Z,9.02
2024-03-22T22:39:16.210Z,9.00
2024-03-22T22:44:17.014Z,8.99
2024-03-22T22:49:17.833Z,8.90
2024-03-22T22:54:18.579Z,8.85
2024-03-22T22:59:19.584Z,8.84
2024-03-22T23:04:20.354Z,8.75
2024-03-22T23:09:21.470Z,8.54
2024-03-22T23:14:22.230Z,8.31
2024-03-22T23:19:23.050Z,8.27
2024-03-22T23:24:23.793Z,8.25
2024-03-22T23:29:24.780Z,8.19
2024-03-22T23:34:25.618Z,8.07
2024-03-22T23:39:26.568Z,8.05
2024-03-22T23:44:27.423Z,7.95
2024-03-22T23:49:29.403Z,7.84
2024-03-22T23:54:30.165Z,7.77
2024-03-22T23:59:31.091Z,7.80
